sensor_id;sensor_type;location;lat;lon;timestamp;pressure;altitude;pressure_sealevel;temperature;humidity
45403;BME280;47427;51.976;5.326;2023-01-28T00:01:28;102934.22;;;3.18;100.00
45403;BME280;47427;51.976;5.326;2023-01-28T00:04:51;102935.78;;;3.16;100.00
45403;BME280;47427;51.976;5.326;2023-01-28T00:08:13;102931.53;;;3.17;100.00
45403;BME280;47427;51.976;5.326;2023-01-28T00:11:35;102931.22;;;3.14;100.00
45403;BME280;47427;51.976;5.326;2023-01-28T00:14:57;102930.69;;;3.08;100.00
45403;BME280;47427;51.976;5.326;2023-01-28T00:18:19;102934.06;;;3.07;100.00
45403;BME280;47427;51.976;5.326;2023-01-28T00:21:42;102931.59;;;3.08;100.00
45403;BME280;47427;51.976;5.326;2023-01-28T00:25:03;102937.34;;;3.14;100.00
45403;BME280;47427;51.976;5.326;2023-01-28T00:28:25;102930.84;;;3.09;100.00
45403;BME280;47427;51.976;5.326;2023-01-28T00:31:48;102934.69;;;3.04;100.00
45403;BME280;47427;51.976;5.326;2023-01-28T00:35:09;102941.41;;;3.02;100.00
45403;BME280;47427;51.976;5.326;2023-01-28T00:38:35;102938.88;;;2.93;100.00
45403;BME280;47427;51.976;5.326;2023-01-28T00:42:16;102945.50;;;2.90;100.00
45403;BME280;47427;51.976;5.326;2023-01-28T00:45:37;102943.81;;;2.90;100.00
45403;BME280;47427;51.976;5.326;2023-01-28T00:49:00;102943.38;;;2.86;100.00
45403;BME280;47427;51.976;5.326;2023-01-28T00:52:21;102945.56;;;2.81;100.00
45403;BME280;47427;51.976;5.326;2023-01-28T00:56:03;102942.69;;;2.78;100.00
45403;BME280;47427;51.976;5.326;2023-01-28T00:59:27;102948.03;;;2.79;100.00
45403;BME280;47427;51.976;5.326;2023-01-28T01:02:48;102951.09;;;2.75;100.00
45403;BME280;47427;51.976;5.326;2023-01-28T01:06:10;102952.00;;;2.76;100.00
45403;BME280;47427;51.976;5.326;2023-01-28T01:09:33;102946.19;;;2.78;100.00
45403;BME280;47427;51.976;5.326;2023-01-28T01:12:55;102943.19;;;2.74;100.00
45403;BME280;47427;51.976;5.326;2023-01-28T01:16:20;102929.84;;;2.60;100.00
45403;BME280;47427;51.976;5.326;2023-01-28T01:19:43;102938.97;;;2.66;100.00
45403;BME280;47427;51.976;5.326;2023-01-28T01:23:04;102943.53;;;2.68;100.00
45403;BME280;47427;51.976;5.326;2023-01-28T01:26:27;102947.31;;;2.72;100.00
45403;BME280;47427;51.976;5.326;2023-01-28T01:29:48;102954.47;;;2.74;100.00
45403;BME280;47427;51.976;5.326;2023-01-28T01:33:10;102949.41;;;2.76;100.00
45403;BME280;47427;51.976;5.326;2023-01-28T01:36:33;102944.72;;;2.72;100.00
45403;BME280;47427;51.976;5.326;2023-01-28T01:39:55;102942.13;;;2.72;100.00
45403;BME280;47427;51.976;5.326;2023-01-28T01:43:20;102943.59;;;2.78;100.00
45403;BME280;47427;51.976;5.326;2023-01-28T01:46:46;102941.16;;;2.80;100.00
45403;BME280;47427;51.976;5.326;2023-01-28T01:53:39;102944.38;;;2.77;100.00
45403;BME280;47427;51.976;5.326;2023-01-28T01:57:01;102956.53;;;2.78;100.00
45403;BME280;47427;51.976;5.326;2023-01-28T02:00:23;102967.97;;;2.80;100.00
45403;BME280;47427;51.976;5.326;2023-01-28T02:04:02;102964.75;;;2.83;100.00
45403;BME280;47427;51.976;5.326;2023-01-28T02:07:25;102947.25;;;2.80;100.00
45403;BME280;47427;51.976;5.326;2023-01-28T02:11:01;102961.25;;;2.82;100.00
45403;BME280;47427;51.976;5.326;2023-01-28T02:14:25;102963.56;;;2.79;100.00
45403;BME280;47427;51.976;5.326;2023-01-28T02:17:48;102956.91;;;2.73;100.00
45403;BME280;47427;51.976;5.326;2023-01-28T02:21:23;102951.44;;;2.70;100.00
45403;BME280;47427;51.976;5.326;2023-01-28T02:25:31;102958.16;;;2.68;100.00
45403;BME280;47427;51.976;5.326;2023-01-28T02:29:37;102949.47;;;2.67;100.00
45403;BME280;47427;51.976;5.326;2023-01-28T02:32:55;102957.25;;;2.67;100.00
45403;BME280;47427;51.976;5.326;2023-01-28T02:36:36;102962.16;;;2.64;100.00
45403;BME280;47427;51.976;5.326;2023-01-28T02:40:08;102965.19;;;2.69;100.00
45403;BME280;47427;51.976;5.326;2023-01-28T02:43:37;102959.38;;;2.71;100.00
45403;BME280;47427;51.976;5.326;2023-01-28T02:46:59;102947.81;;;2.68;100.00
45403;BME280;47427;51.976;5.326;2023-01-28T02:51:09;102962.38;;;2.76;100.00
45403;BME280;47427;51.976;5.326;2023-01-28T02:58:19;102959.03;;;2.77;100.00
45403;BME280;47427;51.976;5.326;2023-01-28T03:01:44;102964.41;;;2.70;100.00
45403;BME280;47427;51.976;5.326;2023-01-28T03:09:02;102967.91;;;2.70;100.00
45403;BME280;47427;51.976;5.326;2023-01-28T03:12:45;102956.72;;;2.61;100.00
45403;BME280;47427;51.976;5.326;2023-01-28T03:16:30;102949.22;;;2.64;100.00
45403;BME280;47427;51.976;5.326;2023-01-28T03:20:12;102952.44;;;2.62;100.00
45403;BME280;47427;51.976;5.326;2023-01-28T03:24:02;102960.47;;;2.65;100.00
45403;BME280;47427;51.976;5.326;2023-01-28T03:27:57;102955.31;;;2.65;100.00
45403;BME280;47427;51.976;5.326;2023-01-28T03:31:39;102955.16;;;2.63;100.00
45403;BME280;47427;51.976;5.326;2023-01-28T03:35:21;102953.81;;;2.58;100.00
45403;BME280;47427;51.976;5.326;2023-01-28T03:39:03;102955.38;;;2.56;100.00
45403;BME280;47427;51.976;5.326;2023-01-28T03:42:24;102957.97;;;2.56;100.00
45403;BME280;47427;51.976;5.326;2023-01-28T03:45:55;102955.38;;;2.56;100.00
45403;BME280;47427;51.976;5.326;2023-01-28T03:49:18;102954.44;;;2.55;100.00
45403;BME280;47427;51.976;5.326;2023-01-28T03:52:39;102955.38;;;2.56;100.00
45403;BME280;47427;51.976;5.326;2023-01-28T03:56:24;102954.16;;;2.52;100.00
45403;BME280;47427;51.976;5.326;2023-01-28T03:59:48;102967.47;;;2.47;100.00
45403;BME280;47427;51.976;5.326;2023-01-28T04:03:14;102971.25;;;2.50;100.00
45403;BME280;47427;51.976;5.326;2023-01-28T04:06:58;102967.00;;;2.51;100.00
45403;BME280;47427;51.976;5.326;2023-01-28T04:10:48;102958.72;;;2.55;100.00
45403;BME280;47427;51.976;5.326;2023-01-28T04:14:17;102959.50;;;2.54;100.00
45403;BME280;47427;51.976;5.326;2023-01-28T04:17:47;102965.75;;;2.56;100.00
45403;BME280;47427;51.976;5.326;2023-01-28T04:21:15;102968.38;;;2.47;100.00
45403;BME280;47427;51.976;5.326;2023-01-28T04:24:38;102979.63;;;2.48;100.00
45403;BME280;47427;51.976;5.326;2023-01-28T04:28:00;102975.53;;;2.50;100.00
45403;BME280;47427;51.976;5.326;2023-01-28T04:31:26;102982.75;;;2.44;100.00
45403;BME280;47427;51.976;5.326;2023-01-28T04:35:07;102979.25;;;2.43;100.00
45403;BME280;47427;51.976;5.326;2023-01-28T04:38:53;102988.66;;;2.43;100.00
45403;BME280;47427;51.976;5.326;2023-01-28T04:42:22;103002.56;;;2.43;100.00
45403;BME280;47427;51.976;5.326;2023-01-28T04:46:10;103006.38;;;2.38;100.00
45403;BME280;47427;51.976;5.326;2023-01-28T04:49:38;102999.84;;;2.33;100.00
45403;BME280;47427;51.976;5.326;2023-01-28T04:53:08;102998.03;;;2.32;100.00
45403;BME280;47427;51.976;5.326;2023-01-28T04:56:44;102996.22;;;2.31;100.00
45403;BME280;47427;51.976;5.326;2023-01-28T05:00:06;102991.34;;;2.25;100.00
45403;BME280;47427;51.976;5.326;2023-01-28T05:03:29;102983.13;;;2.29;100.00
45403;BME280;47427;51.976;5.326;2023-01-28T05:06:52;102982.94;;;2.28;100.00
45403;BME280;47427;51.976;5.326;2023-01-28T05:10:18;102988.00;;;2.26;100.00
45403;BME280;47427;51.976;5.326;2023-01-28T05:13:39;102980.53;;;2.29;100.00
45403;BME280;47427;51.976;5.326;2023-01-28T05:17:05;102978.72;;;2.28;100.00
45403;BME280;47427;51.976;5.326;2023-01-28T05:20:27;102992.41;;;2.27;100.00
45403;BME280;47427;51.976;5.326;2023-01-28T05:23:51;102980.53;;;2.29;100.00
45403;BME280;47427;51.976;5.326;2023-01-28T05:27:15;102987.81;;;2.33;100.00
45403;BME280;47427;51.976;5.326;2023-01-28T05:30:37;102973.22;;;2.25;100.00
45403;BME280;47427;51.976;5.326;2023-01-28T05:34:00;102986.94;;;2.24;100.00
45403;BME280;47427;51.976;5.326;2023-01-28T05:37:21;102988.34;;;2.21;100.00
45403;BME280;47427;51.976;5.326;2023-01-28T05:40:47;102986.22;;;2.16;100.00
45403;BME280;47427;51.976;5.326;2023-01-28T05:44:10;102976.97;;;2.10;100.00
45403;BME280;47427;51.976;5.326;2023-01-28T05:47:57;102984.88;;;2.11;100.00
45403;BME280;47427;51.976;5.326;2023-01-28T05:51:35;102992.47;;;2.19;100.00
45403;BME280;47427;51.976;5.326;2023-01-28T05:54:57;102996.88;;;2.20;100.00
45403;BME280;47427;51.976;5.326;2023-01-28T05:58:20;102989.88;;;2.19;100.00
45403;BME280;47427;51.976;5.326;2023-01-28T06:01:43;102989.44;;;2.14;100.00
45403;BME280;47427;51.976;5.326;2023-01-28T06:05:05;102972.63;;;2.00;100.00
45403;BME280;47427;51.976;5.326;2023-01-28T06:08:27;102986.28;;;2.08;100.00
45403;BME280;47427;51.976;5.326;2023-01-28T06:11:49;102996.19;;;2.03;100.00
45403;BME280;47427;51.976;5.326;2023-01-28T06:15:33;102985.84;;;2.03;100.00
45403;BME280;47427;51.976;5.326;2023-01-28T06:19:09;102989.78;;;2.08;100.00
45403;BME280;47427;51.976;5.326;2023-01-28T06:22:30;102995.69;;;2.07;100.00
45403;BME280;47427;51.976;5.326;2023-01-28T06:25:55;102996.47;;;2.06;100.00
45403;BME280;47427;51.976;5.326;2023-01-28T06:29:17;102997.66;;;2.10;100.00
45403;BME280;47427;51.976;5.326;2023-01-28T06:32:39;102980.38;;;2.00;100.00
45403;BME280;47427;51.976;5.326;2023-01-28T06:36:03;102987.09;;;1.98;100.00
45403;BME280;47427;51.976;5.326;2023-01-28T06:39:24;102981.19;;;1.90;100.00
45403;BME280;47427;51.976;5.326;2023-01-28T06:42:49;102983.91;;;1.92;100.00
45403;BME280;47427;51.976;5.326;2023-01-28T06:46:10;102993.97;;;1.89;100.00
45403;BME280;47427;51.976;5.326;2023-01-28T06:49:32;103005.38;;;1.91;100.00
45403;BME280;47427;51.976;5.326;2023-01-28T06:52:55;103003.41;;;1.88;100.00
45403;BME280;47427;51.976;5.326;2023-01-28T06:56:16;103011.31;;;1.90;100.00
45403;BME280;47427;51.976;5.326;2023-01-28T06:59:39;103015.44;;;1.88;100.00
45403;BME280;47427;51.976;5.326;2023-01-28T07:03:03;103016.06;;;1.85;100.00
45403;BME280;47427;51.976;5.326;2023-01-28T07:06:24;103022.28;;;1.87;100.00
45403;BME280;47427;51.976;5.326;2023-01-28T07:09:47;103030.81;;;1.95;100.00
45403;BME280;47427;51.976;5.326;2023-01-28T07:13:08;103023.44;;;2.00;100.00
45403;BME280;47427;51.976;5.326;2023-01-28T07:16:31;103023.00;;;2.04;100.00
45403;BME280;47427;51.976;5.326;2023-01-28T07:19:53;103038.09;;;1.99;100.00
45403;BME280;47427;51.976;5.326;2023-01-28T07:23:15;103037.06;;;1.88;100.00
45403;BME280;47427;51.976;5.326;2023-01-28T07:26:37;103030.69;;;1.76;100.00
45403;BME280;47427;51.976;5.326;2023-01-28T07:30:00;103029.63;;;1.83;100.00
45403;BME280;47427;51.976;5.326;2023-01-28T07:33:21;103042.06;;;1.87;100.00
45403;BME280;47427;51.976;5.326;2023-01-28T07:36:44;103043.91;;;1.88;100.00
45403;BME280;47427;51.976;5.326;2023-01-28T07:40:07;103036.59;;;1.92;100.00
45403;BME280;47427;51.976;5.326;2023-01-28T07:43:29;103041.47;;;1.89;100.00
45403;BME280;47427;51.976;5.326;2023-01-28T07:46:52;103032.78;;;1.89;100.00
45403;BME280;47427;51.976;5.326;2023-01-28T07:50:14;103047.88;;;1.93;100.00
45403;BME280;47427;51.976;5.326;2023-01-28T07:53:38;103062.31;;;1.91;100.00
45403;BME280;47427;51.976;5.326;2023-01-28T07:57:00;103061.25;;;1.89;100.00
45403;BME280;47427;51.976;5.326;2023-01-28T08:00:23;103067.22;;;1.88;100.00
45403;BME280;47427;51.976;5.326;2023-01-28T08:03:46;103078.03;;;1.92;100.00
45403;BME280;47427;51.976;5.326;2023-01-28T08:07:07;103059.00;;;1.83;100.00
45403;BME280;47427;51.976;5.326;2023-01-28T08:10:29;103061.88;;;1.86;100.00
45403;BME280;47427;51.976;5.326;2023-01-28T08:13:52;103063.09;;;1.81;100.00
45403;BME280;47427;51.976;5.326;2023-01-28T08:17:13;103065.25;;;1.77;100.00
45403;BME280;47427;51.976;5.326;2023-01-28T08:20:36;103069.50;;;1.76;100.00
45403;BME280;47427;51.976;5.326;2023-01-28T08:23:58;103069.06;;;1.71;100.00
45403;BME280;47427;51.976;5.326;2023-01-28T08:27:19;103089.00;;;1.81;100.00
45403;BME280;47427;51.976;5.326;2023-01-28T08:30:42;103093.25;;;1.81;100.00
45403;BME280;47427;51.976;5.326;2023-01-28T08:34:05;103083.84;;;1.72;100.00
45403;BME280;47427;51.976;5.326;2023-01-28T08:37:26;103092.97;;;1.78;100.00
45403;BME280;47427;51.976;5.326;2023-01-28T08:40:49;103095.38;;;1.85;100.00
45403;BME280;47427;51.976;5.326;2023-01-28T08:44:15;103095.97;;;1.91;100.00
45403;BME280;47427;51.976;5.326;2023-01-28T08:47:50;103093.56;;;1.92;100.00
45403;BME280;47427;51.976;5.326;2023-01-28T08:51:12;103089.28;;;1.93;100.00
45403;BME280;47427;51.976;5.326;2023-01-28T08:54:34;103109.66;;;1.99;100.00
45403;BME280;47427;51.976;5.326;2023-01-28T08:57:57;103101.13;;;2.08;100.00
45403;BME280;47427;51.976;5.326;2023-01-28T09:01:23;103111.16;;;2.14;100.00
45403;BME280;47427;51.976;5.326;2023-01-28T09:04:46;103109.59;;;2.25;100.00
45403;BME280;47427;51.976;5.326;2023-01-28T09:08:09;103119.72;;;2.49;100.00
45403;BME280;47427;51.976;5.326;2023-01-28T09:11:31;103103.50;;;2.60;100.00
45403;BME280;47427;51.976;5.326;2023-01-28T09:14:52;103120.63;;;2.77;100.00
45403;BME280;47427;51.976;5.326;2023-01-28T09:18:15;103124.56;;;2.82;100.00
45403;BME280;47427;51.976;5.326;2023-01-28T09:21:57;103134.78;;;2.81;100.00
45403;BME280;47427;51.976;5.326;2023-01-28T09:25:19;103127.59;;;2.87;100.00
45403;BME280;47427;51.976;5.326;2023-01-28T09:28:41;103139.47;;;2.94;100.00
45403;BME280;47427;51.976;5.326;2023-01-28T09:32:03;103128.97;;;3.11;100.00
45403;BME280;47427;51.976;5.326;2023-01-28T09:35:24;103137.16;;;3.24;100.00
45403;BME280;47427;51.976;5.326;2023-01-28T09:38:47;103143.47;;;3.37;100.00
45403;BME280;47427;51.976;5.326;2023-01-28T09:45:49;103139.97;;;3.55;100.00
45403;BME280;47427;51.976;5.326;2023-01-28T09:53:31;103144.06;;;3.72;100.00
45403;BME280;47427;51.976;5.326;2023-01-28T09:57:06;103139.44;;;3.59;100.00
45403;BME280;47427;51.976;5.326;2023-01-28T10:00:55;103148.97;;;3.69;100.00
45403;BME280;47427;51.976;5.326;2023-01-28T10:04:34;103145.13;;;3.93;100.00
45403;BME280;47427;51.976;5.326;2023-01-28T10:19:20;103142.56;;;5.43;100.00
45403;BME280;47427;51.976;5.326;2023-01-28T10:23:07;103141.88;;;11.12;92.26
45403;BME280;47427;51.976;5.326;2023-01-28T10:26:36;103134.38;;;14.08;58.05
45403;BME280;47427;51.976;5.326;2023-01-28T10:29:59;103118.31;;;15.38;52.59
45403;BME280;47427;51.976;5.326;2023-01-28T10:33:36;103116.03;;;15.26;48.67
45403;BME280;47427;51.976;5.326;2023-01-28T10:36:59;103118.28;;;15.78;47.75
45403;BME280;47427;51.976;5.326;2023-01-28T10:40:22;103107.38;;;16.61;45.28
45403;BME280;47427;51.976;5.326;2023-01-28T10:44:04;103108.50;;;17.41;43.76
45403;BME280;47427;51.976;5.326;2023-01-28T10:48:12;103100.22;;;17.83;41.28
45403;BME280;47427;51.976;5.326;2023-01-28T10:51:13;103104.50;;;17.54;38.56
45403;BME280;47427;51.976;5.326;2023-01-28T10:54:35;103083.91;;;17.72;39.81
45403;BME280;47427;51.976;5.326;2023-01-28T10:57:57;103084.66;;;17.68;39.85
45403;BME280;47427;51.976;5.326;2023-01-28T11:01:18;103087.88;;;15.27;40.98
45403;BME280;47427;51.976;5.326;2023-01-28T11:04:40;103094.19;;;13.26;44.51
45403;BME280;47427;51.976;5.326;2023-01-28T11:08:24;103078.47;;;11.81;46.50
45403;BME280;47427;51.976;5.326;2023-01-28T11:11:45;103071.16;;;10.87;49.13
45403;BME280;47427;51.976;5.326;2023-01-28T11:15:16;103067.66;;;11.16;48.84
45403;BME280;47427;51.976;5.326;2023-01-28T11:18:40;103057.09;;;10.86;47.53
45403;BME280;47427;51.976;5.326;2023-01-28T11:22:46;103031.97;;;10.90;48.21
45403;BME280;47427;51.976;5.326;2023-01-28T11:26:21;103030.94;;;10.73;49.63
45403;BME280;47427;51.976;5.326;2023-01-28T11:29:43;103022.03;;;10.28;48.92
45403;BME280;47427;51.976;5.326;2023-01-28T11:37:03;103002.41;;;7.99;53.15
45403;BME280;47427;51.976;5.326;2023-01-28T11:40:31;103006.88;;;7.77;55.80
45403;BME280;47427;51.976;5.326;2023-01-28T11:43:53;102998.50;;;8.18;55.12
45403;BME280;47427;51.976;5.326;2023-01-28T11:47:24;102981.53;;;9.01;55.54
45403;BME280;47427;51.976;5.326;2023-01-28T11:51:05;102989.38;;;10.09;52.08
45403;BME280;47427;51.976;5.326;2023-01-28T11:58:20;102988.19;;;7.47;55.66
45403;BME280;47427;51.976;5.326;2023-01-28T12:01:51;102996.81;;;10.30;53.18
45403;BME280;47427;51.976;5.326;2023-01-28T12:09:12;103017.09;;;13.48;47.58
45403;BME280;47427;51.976;5.326;2023-01-28T12:30:36;103008.88;;;16.98;39.75
45403;BME280;47427;51.976;5.326;2023-01-28T12:41:25;103009.75;;;18.37;36.69
45403;BME280;47427;51.976;5.326;2023-01-28T12:44:51;103004.53;;;18.72;35.48
45403;BME280;47427;51.976;5.326;2023-01-28T12:52:29;102989.59;;;19.85;34.60
45403;BME280;47427;51.976;5.326;2023-01-28T12:59:38;102985.84;;;17.23;32.51
45403;BME280;47427;51.976;5.326;2023-01-28T13:03:35;102994.69;;;16.00;34.87
45403;BME280;47427;51.976;5.326;2023-01-28T13:07:22;102971.81;;;16.50;36.53
45403;BME280;47427;51.976;5.326;2023-01-28T13:10:43;102958.72;;;15.60;36.13
45403;BME280;47427;51.976;5.326;2023-01-28T13:14:04;102959.13;;;15.48;36.65
45403;BME280;47427;51.976;5.326;2023-01-28T13:17:29;102937.03;;;15.25;37.17
45403;BME280;47427;51.976;5.326;2023-01-28T13:20:50;102923.72;;;15.45;37.19
45403;BME280;47427;51.976;5.326;2023-01-28T13:27:33;102910.25;;;14.34;37.65
45403;BME280;47427;51.976;5.326;2023-01-28T13:31:12;102921.97;;;14.60;39.25
45403;BME280;47427;51.976;5.326;2023-01-28T13:34:40;102922.84;;;16.39;38.53
45403;BME280;47427;51.976;5.326;2023-01-28T13:38:16;102927.47;;;17.23;37.06
45403;BME280;47427;51.976;5.326;2023-01-28T13:41:42;102922.25;;;17.53;36.70
45403;BME280;47427;51.976;5.326;2023-01-28T13:48:48;102924.56;;;18.33;35.07
45403;BME280;47427;51.976;5.326;2023-01-28T13:52:16;102927.97;;;17.95;33.52
45403;BME280;47427;51.976;5.326;2023-01-28T13:55:41;102935.50;;;16.73;33.38
45403;BME280;47427;51.976;5.326;2023-01-28T14:17:51;102948.25;;;16.83;35.96
45403;BME280;47427;51.976;5.326;2023-01-28T14:21:16;102964.16;;;16.83;36.18
45403;BME280;47427;51.976;5.326;2023-01-28T14:24:38;102976.25;;;16.25;35.69
45403;BME280;47427;51.976;5.326;2023-01-28T14:28:01;102972.66;;;15.56;36.84
45403;BME280;47427;51.976;5.326;2023-01-28T14:31:26;102969.44;;;13.80;40.65
45403;BME280;47427;51.976;5.326;2023-01-28T14:34:50;102953.31;;;14.71;40.32
45403;BME280;47427;51.976;5.326;2023-01-28T14:38:18;102943.31;;;15.06;39.39
45403;BME280;47427;51.976;5.326;2023-01-28T14:41:43;102936.63;;;15.14;40.01
45403;BME280;47427;51.976;5.326;2023-01-28T15:00:23;102942.41;;;11.31;43.95
45403;BME280;47427;51.976;5.326;2023-01-28T15:03:45;102947.25;;;10.34;47.33
45403;BME280;47427;51.976;5.326;2023-01-28T15:07:16;102949.03;;;9.38;48.22
45403;BME280;47427;51.976;5.326;2023-01-28T15:10:39;102963.91;;;8.99;51.92
45403;BME280;47427;51.976;5.326;2023-01-28T15:14:01;102969.94;;;8.84;52.66
45403;BME280;47427;51.976;5.326;2023-01-28T15:17:26;102978.16;;;8.64;53.42
45403;BME280;47427;51.976;5.326;2023-01-28T15:20:50;102979.34;;;8.31;54.71
45403;BME280;47427;51.976;5.326;2023-01-28T15:24:13;102984.91;;;7.98;56.02
45403;BME280;47427;51.976;5.326;2023-01-28T15:27:35;102986.09;;;7.78;56.90
45403;BME280;47427;51.976;5.326;2023-01-28T15:30:57;102990.91;;;7.60;57.64
45403;BME280;47427;51.976;5.326;2023-01-28T15:34:20;103002.94;;;7.47;59.03
45403;BME280;47427;51.976;5.326;2023-01-28T15:37:43;103012.50;;;7.23;59.20
45403;BME280;47427;51.976;5.326;2023-01-28T15:41:05;103028.13;;;7.11;60.07
45403;BME280;47427;51.976;5.326;2023-01-28T15:44:29;103004.41;;;6.96;61.28
45403;BME280;47427;51.976;5.326;2023-01-28T15:47:52;103003.13;;;6.79;62.00
45403;BME280;47427;51.976;5.326;2023-01-28T15:51:24;102999.63;;;6.79;62.83
45403;BME280;47427;51.976;5.326;2023-01-28T15:54:49;102991.75;;;6.67;62.85
45403;BME280;47427;51.976;5.326;2023-01-28T15:58:15;102997.59;;;6.19;62.86
45403;BME280;47427;51.976;5.326;2023-01-28T16:02:17;102990.81;;;5.99;64.89
45403;BME280;47427;51.976;5.326;2023-01-28T16:05:40;103005.19;;;5.94;65.55
45403;BME280;47427;51.976;5.326;2023-01-28T16:09:05;103014.03;;;5.96;66.69
45403;BME280;47427;51.976;5.326;2023-01-28T16:12:34;103017.47;;;6.06;67.00
45403;BME280;47427;51.976;5.326;2023-01-28T16:15:55;103013.06;;;6.05;66.70
45403;BME280;47427;51.976;5.326;2023-01-28T16:19:37;103003.53;;;5.74;66.56
45403;BME280;47427;51.976;5.326;2023-01-28T16:23:00;103003.28;;;5.38;67.32
45403;BME280;47427;51.976;5.326;2023-01-28T16:26:28;102988.56;;;5.07;68.04
45403;BME280;47427;51.976;5.326;2023-01-28T16:29:51;103012.63;;;4.94;70.31
45403;BME280;47427;51.976;5.326;2023-01-28T16:33:19;103012.88;;;4.97;70.23
45403;BME280;47427;51.976;5.326;2023-01-28T16:36:43;103012.75;;;4.85;70.33
45403;BME280;47427;51.976;5.326;2023-01-28T16:40:06;103006.53;;;4.73;70.69
45403;BME280;47427;51.976;5.326;2023-01-28T16:43:27;103009.38;;;4.76;71.43
45403;BME280;47427;51.976;5.326;2023-01-28T16:46:49;103014.88;;;4.59;71.98
45403;BME280;47427;51.976;5.326;2023-01-28T16:50:12;103004.97;;;4.44;72.53
45403;BME280;47427;51.976;5.326;2023-01-28T16:53:35;103012.91;;;4.56;73.18
45403;BME280;47427;51.976;5.326;2023-01-28T16:56:58;103011.47;;;4.70;73.50
45403;BME280;47427;51.976;5.326;2023-01-28T17:00:21;102999.75;;;4.75;73.72
45403;BME280;47427;51.976;5.326;2023-01-28T17:03:44;103006.50;;;4.93;74.06
45403;BME280;47427;51.976;5.326;2023-01-28T17:07:07;103015.75;;;5.00;73.82
45403;BME280;47427;51.976;5.326;2023-01-28T17:10:28;103017.69;;;4.92;73.59
45403;BME280;47427;51.976;5.326;2023-01-28T17:13:51;103017.69;;;4.92;73.99
45403;BME280;47427;51.976;5.326;2023-01-28T17:17:12;103024.84;;;5.05;73.88
45403;BME280;47427;51.976;5.326;2023-01-28T17:20:36;103011.44;;;4.90;73.60
45403;BME280;47427;51.976;5.326;2023-01-28T17:24:01;103012.50;;;4.72;74.87
45403;BME280;47427;51.976;5.326;2023-01-28T17:27:23;103016.66;;;4.60;74.62
45403;BME280;47427;51.976;5.326;2023-01-28T17:30:44;103008.06;;;4.50;74.94
45403;BME280;47427;51.976;5.326;2023-01-28T17:34:06;103011.84;;;4.44;76.05
45403;BME280;47427;51.976;5.326;2023-01-28T17:37:28;103011.06;;;4.34;75.67
45403;BME280;47427;51.976;5.326;2023-01-28T17:40:50;103014.19;;;4.30;76.54
45403;BME280;47427;51.976;5.326;2023-01-28T17:44:13;103014.94;;;4.19;77.08
45403;BME280;47427;51.976;5.326;2023-01-28T17:47:36;103025.16;;;4.07;78.09
45403;BME280;47427;51.976;5.326;2023-01-28T17:50:58;103019.16;;;3.98;79.14
45403;BME280;47427;51.976;5.326;2023-01-28T17:54:19;103031.88;;;3.85;79.83
45403;BME280;47427;51.976;5.326;2023-01-28T17:57:44;103036.00;;;3.83;80.35
45403;BME280;47427;51.976;5.326;2023-01-28T18:01:08;103041.00;;;3.71;80.45
45403;BME280;47427;51.976;5.326;2023-01-28T18:04:30;103043.06;;;3.65;81.34
45403;BME280;47427;51.976;5.326;2023-01-28T18:07:52;103044.69;;;3.54;81.77
45403;BME280;47427;51.976;5.326;2023-01-28T18:11:17;103048.91;;;3.62;81.98
45403;BME280;47427;51.976;5.326;2023-01-28T18:14:40;103055.63;;;3.60;82.19
45403;BME280;47427;51.976;5.326;2023-01-28T18:18:02;103059.59;;;3.76;82.82
45403;BME280;47427;51.976;5.326;2023-01-28T18:24:54;103071.69;;;3.75;82.74
45403;BME280;47427;51.976;5.326;2023-01-28T18:28:16;103075.66;;;3.72;83.36
45403;BME280;47427;51.976;5.326;2023-01-28T18:31:37;103080.84;;;3.72;83.62
45403;BME280;47427;51.976;5.326;2023-01-28T18:35:00;103073.09;;;3.82;84.07
45403;BME280;47427;51.976;5.326;2023-01-28T18:38:22;103086.09;;;3.82;83.78
45403;BME280;47427;51.976;5.326;2023-01-28T18:41:44;103077.84;;;3.67;83.77
45403;BME280;47427;51.976;5.326;2023-01-28T18:45:07;103090.13;;;3.59;84.75
45403;BME280;47427;51.976;5.326;2023-01-28T18:48:28;103084.19;;;3.60;85.04
45403;BME280;47427;51.976;5.326;2023-01-28T18:51:51;103084.34;;;3.72;84.13
45403;BME280;47427;51.976;5.326;2023-01-28T18:55:13;103090.19;;;3.69;84.19
45403;BME280;47427;51.976;5.326;2023-01-28T18:58:35;103090.19;;;3.69;84.21
45403;BME280;47427;51.976;5.326;2023-01-28T19:01:57;103085.72;;;3.58;83.96
45403;BME280;47427;51.976;5.326;2023-01-28T19:05:20;103078.78;;;3.67;84.37
45403;BME280;47427;51.976;5.326;2023-01-28T19:08:41;103078.13;;;3.70;85.18
45403;BME280;47427;51.976;5.326;2023-01-28T19:12:04;103086.25;;;3.64;84.31
45403;BME280;47427;51.976;5.326;2023-01-28T19:15:25;103085.41;;;3.74;85.51
45403;BME280;47427;51.976;5.326;2023-01-28T19:18:56;103079.59;;;3.77;84.72
45403;BME280;47427;51.976;5.326;2023-01-28T19:22:19;103083.88;;;3.76;84.40
45403;BME280;47427;51.976;5.326;2023-01-28T19:25:40;103082.38;;;3.88;84.72
45403;BME280;47427;51.976;5.326;2023-01-28T19:29:05;103083.66;;;3.83;83.74
45403;BME280;47427;51.976;5.326;2023-01-28T19:32:28;103086.25;;;3.83;84.62
45403;BME280;47427;51.976;5.326;2023-01-28T19:35:57;103076.72;;;3.74;84.35
45403;BME280;47427;51.976;5.326;2023-01-28T19:39:20;103089.44;;;3.71;84.78
45403;BME280;47427;51.976;5.326;2023-01-28T19:42:41;103084.03;;;3.59;85.18
45403;BME280;47427;51.976;5.326;2023-01-28T19:46:04;103075.50;;;3.60;84.94
45403;BME280;47427;51.976;5.326;2023-01-28T19:49:28;103071.41;;;3.53;85.41
45403;BME280;47427;51.976;5.326;2023-01-28T19:52:49;103066.91;;;3.61;86.30
45403;BME280;47427;51.976;5.326;2023-01-28T19:56:13;103067.75;;;3.70;86.37
45403;BME280;47427;51.976;5.326;2023-01-28T19:59:37;103066.28;;;3.63;85.23
45403;BME280;47427;51.976;5.326;2023-01-28T20:02:59;103066.81;;;3.69;86.35